Time;durP1;ratioP1;P1;durP2;ratioP2;P2;SDS_P1;SDS_P2;PMS_P1;PMS_P2;Temp;Humidity;BMP_temperature;BMP_pressure;BME280_temperature;BME280_humidity;BME280_pressure;Samples;Min_cycle;Max_cycle;Signal;HPM_P1;HPM_P2
2022/11/08 00:02:40;;;;;;;4.20;2.60;;;;;;;;;;5031141;28;20654;-78
2022/11/08 00:16:06;;;;;;;4.30;2.33;;;;;;;;;;5046927;28;20209;-78
2022/11/08 00:18:32;;;;;;;5.03;2.53;;;;;;;;;;5044039;28;20221;-78
2022/11/08 00:21:02;;;;;;;6.13;2.70;;;;;;;;;;5030651;28;20183;-78
2022/11/08 00:23:28;;;;;;;4.67;2.47;;;;;;;;;;5027078;28;20186;-78
2022/11/08 00:25:54;;;;;;;3.37;2.30;;;;;;;;;;5035747;28;20233;-78
2022/11/08 00:28:21;;;;;;;6.03;2.50;;;;;;;;;;5029875;28;20198;-78
2022/11/08 00:30:47;;;;;;;3.47;2.53;;;;;;;;;;5031823;28;20189;-78
2022/11/08 00:33:13;;;;;;;4.83;2.33;;;;;;;;;;5032565;28;20182;-78
2022/11/08 00:35:39;;;;;;;3.73;2.20;;;;;;;;;;5037901;28;20201;-78
2022/11/08 00:38:06;;;;;;;4.20;2.40;;;;;;;;;;5044467;28;20183;-78
2022/11/08 00:40:32;;;;;;;3.97;2.00;;;;;;;;;;5042822;28;20185;-78
2022/11/08 00:42:58;;;;;;;3.53;1.90;;;;;;;;;;5040468;28;20210;-79
2022/11/08 00:45:24;;;;;;;5.00;1.97;;;;;;;;;;5027882;28;21343;-78
2022/11/08 00:47:50;;;;;;;4.20;2.30;;;;;;;;;;5027821;28;20194;-78
2022/11/08 00:50:16;;;;;;;4.37;1.87;;;;;;;;;;5027203;28;20198;-78
2022/11/08 00:52:42;;;;;;;3.20;1.70;;;;;;;;;;5030593;28;20177;-78
2022/11/08 00:55:08;;;;;;;3.90;2.10;;;;;;;;;;5041742;28;20201;-78
2022/11/08 00:57:35;;;;;;;3.47;2.23;;;;;;;;;;5031083;28;20181;-78
2022/11/08 01:00:01;;;;;;;4.53;2.37;;;;;;;;;;5021648;28;20696;-78
2022/11/08 01:02:27;;;;;;;6.77;2.60;;;;;;;;;;5034463;28;20219;-78
2022/11/08 01:04:53;;;;;;;4.93;2.50;;;;;;;;;;5035159;28;20201;-78
2022/11/08 01:07:19;;;;;;;4.83;2.10;;;;;;;;;;5028208;28;22046;-78
2022/11/08 01:09:46;;;;;;;3.00;2.00;;;;;;;;;;5039369;28;20273;-78
2022/11/08 01:12:12;;;;;;;3.77;2.17;;;;;;;;;;5030859;28;20269;-78
2022/11/08 01:14:38;;;;;;;3.60;2.30;;;;;;;;;;5026477;28;20299;-78
2022/11/08 01:17:04;;;;;;;4.10;2.10;;;;;;;;;;5027566;28;20191;-79
2022/11/08 01:19:30;;;;;;;2.93;1.90;;;;;;;;;;5030205;28;20173;-79
2022/11/08 01:21:56;;;;;;;4.50;2.30;;;;;;;;;;5029080;28;20558;-78
2022/11/08 01:24:22;;;;;;;3.83;2.00;;;;;;;;;;5033495;28;20214;-78
2022/11/08 01:26:50;;;;;;;4.67;2.10;;;;;;;;;;5026908;28;20592;-78
2022/11/08 01:29:16;;;;;;;3.37;2.20;;;;;;;;;;5027969;28;20211;-78
2022/11/08 01:31:43;;;;;;;3.10;2.10;;;;;;;;;;5024154;28;20190;-78
2022/11/08 01:34:09;;;;;;;5.50;2.20;;;;;;;;;;5044796;28;20829;-78
2022/11/08 01:36:36;;;;;;;3.30;2.17;;;;;;;;;;5041766;28;20182;-78
2022/11/08 01:39:02;;;;;;;4.50;2.57;;;;;;;;;;5027276;28;20186;-78
2022/11/08 01:41:28;;;;;;;4.23;2.40;;;;;;;;;;5020096;28;20200;-78
2022/11/08 01:43:58;;;;;;;5.23;2.57;;;;;;;;;;5027535;28;20244;-79
2022/11/08 01:46:33;;;;;;;6.47;2.50;;;;;;;;;;5046059;28;20205;-78
2022/11/08 01:49:04;;;;;;;4.50;2.53;;;;;;;;;;5031991;28;20236;-78
2022/11/08 01:51:33;;;;;;;4.03;2.37;;;;;;;;;;5030945;28;20243;-78
2022/11/08 01:54:04;;;;;;;3.83;2.23;;;;;;;;;;5031929;28;20190;-78
2022/11/08 01:56:30;;;;;;;5.30;2.57;;;;;;;;;;5030789;28;20182;-78
2022/11/08 01:58:57;;;;;;;4.87;2.40;;;;;;;;;;5024925;28;20189;-79
2022/11/08 02:01:23;;;;;;;3.60;2.37;;;;;;;;;;5028705;28;20571;-78
2022/11/08 02:03:50;;;;;;;5.37;2.63;;;;;;;;;;5026899;28;20729;-78
2022/11/08 02:06:16;;;;;;;6.47;2.97;;;;;;;;;;5045470;28;20206;-78
2022/11/08 02:08:43;;;;;;;5.03;2.87;;;;;;;;;;5021479;28;20244;-78
2022/11/08 02:11:12;;;;;;;5.67;2.83;;;;;;;;;;5023887;28;20197;-78
2022/11/08 02:13:38;;;;;;;8.80;3.73;;;;;;;;;;5038913;28;20162;-78
2022/11/08 02:16:12;;;;;;;4.13;2.90;;;;;;;;;;5039510;28;20202;-77
2022/11/08 02:18:38;;;;;;;3.57;2.70;;;;;;;;;;5029888;28;20179;-76
2022/11/08 02:21:20;;;;;;;4.60;3.13;;;;;;;;;;5026763;28;20191;-73
2022/11/08 02:23:50;;;;;;;5.30;2.70;;;;;;;;;;5027527;28;20681;-77
2022/11/08 02:26:17;;;;;;;3.60;2.30;;;;;;;;;;5033425;28;20409;-77
2022/11/08 02:28:45;;;;;;;4.70;2.60;;;;;;;;;;5036165;28;20260;-77
2022/11/08 02:31:12;;;;;;;6.23;2.80;;;;;;;;;;5029561;28;20198;-76
2022/11/08 02:33:38;;;;;;;3.90;2.60;;;;;;;;;;5048375;28;20185;-77
2022/11/08 02:36:06;;;;;;;3.47;2.50;;;;;;;;;;5028436;28;20206;-77
2022/11/08 02:38:34;;;;;;;3.13;2.33;;;;;;;;;;5044602;28;20278;-76
2022/11/08 02:41:00;;;;;;;6.43;2.70;;;;;;;;;;5031494;28;20552;-78
2022/11/08 02:43:26;;;;;;;4.47;2.60;;;;;;;;;;5032021;28;20178;-76
2022/11/08 02:45:52;;;;;;;4.30;2.63;;;;;;;;;;5033825;28;20202;-78
2022/11/08 02:48:19;;;;;;;4.60;2.70;;;;;;;;;;5027341;28;20260;-77
2022/11/08 02:50:45;;;;;;;6.33;2.60;;;;;;;;;;5036477;28;20600;-76
2022/11/08 02:53:12;;;;;;;5.53;3.00;;;;;;;;;;5041804;28;20664;-76
2022/11/08 02:55:38;;;;;;;5.80;2.80;;;;;;;;;;5031038;28;20288;-77
2022/11/08 02:58:04;;;;;;;4.07;2.80;;;;;;;;;;5036125;28;20182;-77
2022/11/08 03:00:31;;;;;;;4.20;3.10;;;;;;;;;;5033572;28;20662;-77
2022/11/08 03:02:57;;;;;;;4.23;2.80;;;;;;;;;;5036624;28;20206;-77
2022/11/08 03:05:24;;;;;;;5.77;3.27;;;;;;;;;;5036386;28;20203;-77
2022/11/08 03:07:50;;;;;;;5.67;2.80;;;;;;;;;;5029031;28;20194;-78
2022/11/08 03:10:17;;;;;;;4.63;2.80;;;;;;;;;;5038050;28;20844;-76
2022/11/08 03:12:43;;;;;;;6.23;3.00;;;;;;;;;;5033964;28;20179;-77
2022/11/08 03:15:10;;;;;;;6.17;3.20;;;;;;;;;;5037627;28;20198;-77
2022/11/08 03:17:36;;;;;;;5.67;2.70;;;;;;;;;;5039811;28;20539;-77
2022/11/08 03:20:03;;;;;;;5.97;2.90;;;;;;;;;;5026175;28;20198;-77
2022/11/08 03:22:29;;;;;;;5.27;3.40;;;;;;;;;;5039019;28;20593;-77
2022/11/08 03:24:55;;;;;;;7.33;2.80;;;;;;;;;;5038856;28;20219;-78
2022/11/08 03:27:21;;;;;;;3.77;2.70;;;;;;;;;;5062114;28;20242;-78
2022/11/08 03:29:48;;;;;;;5.30;2.80;;;;;;;;;;5046198;28;20204;-77
2022/11/08 03:32:14;;;;;;;5.53;3.00;;;;;;;;;;5028074;28;20765;-77
2022/11/08 03:34:40;;;;;;;6.00;2.80;;;;;;;;;;5038100;28;20194;-77
2022/11/08 03:37:08;;;;;;;4.93;2.80;;;;;;;;;;5046267;28;20190;-77
2022/11/08 03:39:34;;;;;;;4.83;2.57;;;;;;;;;;5030114;28;20178;-77
2022/11/08 03:42:02;;;;;;;5.53;3.20;;;;;;;;;;5031146;28;20180;-77
2022/11/08 03:44:28;;;;;;;3.97;2.80;;;;;;;;;;5032086;28;20198;-77
2022/11/08 03:46:55;;;;;;;6.17;2.90;;;;;;;;;;5028762;28;20176;-77
2022/11/08 03:49:21;;;;;;;4.80;2.57;;;;;;;;;;5030086;28;20248;-76
2022/11/08 03:51:47;;;;;;;6.07;3.00;;;;;;;;;;5033057;28;20288;-77
2022/11/08 03:54:13;;;;;;;6.40;3.10;;;;;;;;;;5031947;28;20905;-77
2022/11/08 03:56:39;;;;;;;5.60;2.80;;;;;;;;;;5035755;28;20174;-78
2022/11/08 03:59:06;;;;;;;3.33;2.50;;;;;;;;;;5030542;28;20186;-77
2022/11/08 04:01:32;;;;;;;3.20;2.33;;;;;;;;;;5034137;28;20190;-77
2022/11/08 04:03:58;;;;;;;4.20;2.20;;;;;;;;;;5031325;28;20215;-77
2022/11/08 04:06:24;;;;;;;4.10;2.30;;;;;;;;;;5035924;28;20261;-77
2022/11/08 04:08:51;;;;;;;4.80;2.33;;;;;;;;;;5045070;28;20237;-78
2022/11/08 04:16:46;;;;;;;2.97;2.30;;;;;;;;;;5034765;28;20562;-76
2022/11/08 04:21:57;;;;;;;4.30;2.27;;;;;;;;;;5039362;28;20201;-77
2022/11/08 04:24:24;;;;;;;5.10;2.37;;;;;;;;;;5049517;28;20296;-77
2022/11/08 04:26:50;;;;;;;5.37;2.43;;;;;;;;;;5028617;28;20187;-76
2022/11/08 04:29:16;;;;;;;4.60;2.50;;;;;;;;;;5031094;28;20249;-77
2022/11/08 04:31:42;;;;;;;6.13;2.83;;;;;;;;;;5030046;28;20182;-76
2022/11/08 04:34:08;;;;;;;4.60;2.60;;;;;;;;;;5029481;28;20183;-78
2022/11/08 04:36:35;;;;;;;3.13;2.37;;;;;;;;;;5039333;28;20214;-76
2022/11/08 04:39:01;;;;;;;2.83;2.03;;;;;;;;;;5030005;28;20194;-77
2022/11/08 04:41:27;;;;;;;3.03;2.27;;;;;;;;;;5042552;28;20658;-78
2022/11/08 04:43:54;;;;;;;3.93;2.13;;;;;;;;;;5031079;28;20301;-76
2022/11/08 04:46:25;;;;;;;3.93;2.30;;;;;;;;;;5031964;28;20252;-77
2022/11/08 04:48:52;;;;;;;4.13;2.40;;;;;;;;;;5032446;28;20268;-77
2022/11/08 04:51:19;;;;;;;2.97;2.20;;;;;;;;;;5036855;28;20182;-77
2022/11/08 04:53:46;;;;;;;3.07;1.93;;;;;;;;;;5046787;28;20291;-76
2022/11/08 04:56:13;;;;;;;4.53;2.20;;;;;;;;;;5054776;28;20265;-76
2022/11/08 04:58:44;;;;;;;4.03;2.40;;;;;;;;;;5034974;28;20823;-77
2022/11/08 05:01:11;;;;;;;3.10;2.53;;;;;;;;;;5028083;28;20185;-77
2022/11/08 05:03:38;;;;;;;4.73;2.80;;;;;;;;;;5036196;28;20186;-77
2022/11/08 05:06:05;;;;;;;4.07;2.53;;;;;;;;;;5037016;28;20275;-77
2022/11/08 05:08:31;;;;;;;5.00;2.83;;;;;;;;;;5038329;28;20744;-78
2022/11/08 05:11:01;;;;;;;5.50;2.73;;;;;;;;;;5029751;28;20232;-76
2022/11/08 05:13:27;;;;;;;4.83;2.80;;;;;;;;;;5028165;28;20184;-77
2022/11/08 05:15:53;;;;;;;4.67;2.37;;;;;;;;;;5031176;28;20213;-77
2022/11/08 05:18:20;;;;;;;4.47;2.70;;;;;;;;;;5029444;28;20222;-76
2022/11/08 05:23:31;;;;;;;4.20;2.57;;;;;;;;;;5029796;28;20208;-76
2022/11/08 05:25:57;;;;;;;3.63;2.77;;;;;;;;;;5031450;28;20793;-76
2022/11/08 05:28:23;;;;;;;4.87;2.80;;;;;;;;;;5037137;28;20280;-77
2022/11/08 05:30:53;;;;;;;4.43;2.80;;;;;;;;;;5040196;28;20174;-76
2022/11/08 05:33:19;;;;;;;4.57;2.87;;;;;;;;;;5022027;28;20179;-76
2022/11/08 05:35:45;;;;;;;5.13;3.20;;;;;;;;;;5038079;28;20256;-76
2022/11/08 05:38:12;;;;;;;5.17;3.00;;;;;;;;;;5028004;28;20174;-77
2022/11/08 05:40:38;;;;;;;3.53;3.00;;;;;;;;;;5027452;28;20177;-78
2022/11/08 05:43:04;;;;;;;5.00;3.00;;;;;;;;;;5038956;28;20186;-77
2022/11/08 05:45:30;;;;;;;4.57;2.90;;;;;;;;;;5036417;28;21150;-77
2022/11/08 05:48:02;;;;;;;4.27;3.20;;;;;;;;;;5039224;28;20252;-77
2022/11/08 05:50:37;;;;;;;6.47;3.13;;;;;;;;;;5032882;28;20700;-78
2022/11/08 05:53:10;;;;;;;4.87;3.13;;;;;;;;;;5039033;28;20281;-77
2022/11/08 05:55:37;;;;;;;4.73;2.90;;;;;;;;;;5033927;28;20198;-77
2022/11/08 05:58:03;;;;;;;6.77;2.70;;;;;;;;;;5043258;28;20187;-77
2022/11/08 06:00:29;;;;;;;5.13;2.80;;;;;;;;;;5040447;28;20179;-77
2022/11/08 06:02:55;;;;;;;4.37;3.10;;;;;;;;;;5047124;28;20195;-76
2022/11/08 06:05:21;;;;;;;5.20;2.97;;;;;;;;;;5036660;28;20202;-77
2022/11/08 06:07:48;;;;;;;6.20;3.30;;;;;;;;;;5042858;28;20178;-76
2022/11/08 06:10:14;;;;;;;4.90;2.90;;;;;;;;;;5046824;28;20179;-77
2022/11/08 06:12:40;;;;;;;5.53;2.83;;;;;;;;;;5063441;28;20185;-76
2022/11/08 06:15:06;;;;;;;5.77;3.03;;;;;;;;;;5040411;28;20202;-77
2022/11/08 06:17:33;;;;;;;10.47;3.53;;;;;;;;;;5041250;28;20260;-77
2022/11/08 06:19:59;;;;;;;7.97;4.00;;;;;;;;;;5038916;28;20185;-78
2022/11/08 06:22:25;;;;;;;7.47;3.50;;;;;;;;;;5028336;28;20206;-79
2022/11/08 06:24:51;;;;;;;7.37;4.20;;;;;;;;;;5045183;28;20234;-78
2022/11/08 06:27:18;;;;;;;6.57;3.60;;;;;;;;;;5045494;28;20221;-76
2022/11/08 06:29:44;;;;;;;5.90;4.43;;;;;;;;;;5031388;28;20202;-77
2022/11/08 06:32:10;;;;;;;5.53;3.70;;;;;;;;;;5032823;28;20182;-76
2022/11/08 06:34:36;;;;;;;5.30;3.70;;;;;;;;;;5028470;28;20202;-79
2022/11/08 06:37:03;;;;;;;4.30;3.07;;;;;;;;;;5031711;28;20245;-81
2022/11/08 06:39:30;;;;;;;4.77;3.60;;;;;;;;;;5044771;28;20653;-75
2022/11/08 06:41:56;;;;;;;6.13;3.67;;;;;;;;;;5036044;28;20557;-83
2022/11/08 06:44:22;;;;;;;6.50;3.70;;;;;;;;;;5035299;28;20206;-80
2022/11/08 06:46:48;;;;;;;5.60;3.47;;;;;;;;;;5038579;28;20558;-83
2022/11/08 06:49:14;;;;;;;6.93;3.63;;;;;;;;;;5035200;28;20211;-82
2022/11/08 06:51:41;;;;;;;6.47;3.37;;;;;;;;;;5043860;28;20233;-82
2022/11/08 06:54:07;;;;;;;4.10;3.17;;;;;;;;;;5023629;28;20202;-73
2022/11/08 06:56:33;;;;;;;5.30;3.40;;;;;;;;;;5037312;28;20551;-82
2022/11/08 06:59:00;;;;;;;4.17;3.13;;;;;;;;;;5035292;28;20182;-80
2022/11/08 07:01:26;;;;;;;4.17;3.27;;;;;;;;;;5038563;28;20186;-80
2022/11/08 07:03:52;;;;;;;4.00;2.90;;;;;;;;;;5040063;28;20193;-79
2022/11/08 07:06:18;;;;;;;5.80;3.03;;;;;;;;;;5036390;28;20850;-79
2022/11/08 07:08:44;;;;;;;4.60;3.10;;;;;;;;;;5037470;28;20248;-79
2022/11/08 07:11:10;;;;;;;4.90;3.30;;;;;;;;;;5014089;28;20185;-81
2022/11/08 07:13:37;;;;;;;4.50;3.07;;;;;;;;;;5027295;28;20787;-80
2022/11/08 07:16:03;;;;;;;5.57;3.40;;;;;;;;;;5029549;28;20338;-80
2022/11/08 07:18:29;;;;;;;5.57;3.43;;;;;;;;;;5045451;28;20183;-80
2022/11/08 07:20:59;;;;;;;5.27;3.23;;;;;;;;;;5028772;28;20198;-80
2022/11/08 07:23:26;;;;;;;5.40;3.27;;;;;;;;;;5040523;28;20185;-81
2022/11/08 07:25:52;;;;;;;4.20;3.03;;;;;;;;;;5044144;28;20308;-80
2022/11/08 07:28:19;;;;;;;3.77;3.10;;;;;;;;;;5029206;28;20618;-81
2022/11/08 07:30:46;;;;;;;5.17;3.20;;;;;;;;;;5039492;28;20182;-80
2022/11/08 07:33:13;;;;;;;3.70;3.03;;;;;;;;;;5032203;28;20198;-80
2022/11/08 07:35:39;;;;;;;4.77;3.00;;;;;;;;;;5041136;28;20284;-80
2022/11/08 07:38:06;;;;;;;4.27;2.80;;;;;;;;;;5046155;28;20880;-80
2022/11/08 07:40:34;;;;;;;4.27;3.13;;;;;;;;;;5050321;28;20644;-80
2022/11/08 07:43:00;;;;;;;3.70;2.77;;;;;;;;;;5036746;28;20572;-80
2022/11/08 07:45:27;;;;;;;5.20;3.30;;;;;;;;;;5030747;28;20198;-78
2022/11/08 07:47:57;;;;;;;5.97;3.30;;;;;;;;;;5033157;28;20260;-81
2022/11/08 07:50:23;;;;;;;4.53;3.23;;;;;;;;;;5059926;28;20182;-81
2022/11/08 07:52:49;;;;;;;4.50;3.10;;;;;;;;;;5036500;28;20174;-80
2022/11/08 07:55:16;;;;;;;5.90;3.37;;;;;;;;;;5033533;28;20204;-80
2022/11/08 07:57:42;;;;;;;3.67;2.90;;;;;;;;;;5030325;28;20177;-80
2022/11/08 08:00:09;;;;;;;5.90;2.97;;;;;;;;;;5038609;28;20171;-80
2022/11/08 08:02:38;;;;;;;4.70;3.40;;;;;;;;;;5033926;28;20178;-80
2022/11/08 08:05:04;;;;;;;5.30;3.07;;;;;;;;;;5035323;28;20198;-80
2022/11/08 08:07:31;;;;;;;3.23;2.77;;;;;;;;;;5038541;28;20184;-81
2022/11/08 08:09:57;;;;;;;4.63;3.10;;;;;;;;;;5048858;28;20293;-80
2022/11/08 08:12:23;;;;;;;5.00;3.20;;;;;;;;;;5024922;28;20171;-80
2022/11/08 08:14:49;;;;;;;5.27;3.30;;;;;;;;;;5027935;28;20223;-80
2022/11/08 08:17:15;;;;;;;6.67;3.10;;;;;;;;;;5031293;28;20843;-80
2022/11/08 08:19:42;;;;;;;7.27;2.97;;;;;;;;;;5032359;28;20523;-80
2022/11/08 08:22:08;;;;;;;7.73;3.47;;;;;;;;;;5025999;28;20233;-81
2022/11/08 08:24:34;;;;;;;7.57;3.10;;;;;;;;;;5028303;28;20224;-80
2022/11/08 08:27:00;;;;;;;4.60;3.30;;;;;;;;;;5033853;28;20282;-80
2022/11/08 08:29:26;;;;;;;6.43;3.60;;;;;;;;;;5035101;28;20253;-80
2022/11/08 08:31:52;;;;;;;6.20;3.80;;;;;;;;;;5030799;28;20178;-80
2022/11/08 08:34:19;;;;;;;7.53;3.93;;;;;;;;;;5041622;28;20669;-81
2022/11/08 08:36:45;;;;;;;4.40;3.30;;;;;;;;;;5028606;28;20179;-80
2022/11/08 08:39:11;;;;;;;6.27;4.00;;;;;;;;;;5025230;28;20191;-80
2022/11/08 08:41:37;;;;;;;6.00;3.30;;;;;;;;;;5031568;28;20232;-81
2022/11/08 08:44:24;;;;;;;5.27;3.40;;;;;;;;;;5086318;27;20610;-83
2022/11/08 08:46:50;;;;;;;5.07;3.40;;;;;;;;;;5046348;28;20667;-79
2022/11/08 08:49:16;;;;;;;4.00;3.10;;;;;;;;;;5052656;28;20332;-79
2022/11/08 08:51:43;;;;;;;7.47;3.50;;;;;;;;;;5045789;28;20178;-84
2022/11/08 08:54:10;;;;;;;7.57;3.60;;;;;;;;;;5045741;28;20201;-80
2022/11/08 08:56:36;;;;;;;5.80;3.57;;;;;;;;;;5045875;28;20283;-80
2022/11/08 08:59:02;;;;;;;5.30;3.90;;;;;;;;;;5052858;28;20251;-79
2022/11/08 09:01:29;;;;;;;5.43;4.13;;;;;;;;;;5040549;28;20244;-79
2022/11/08 09:03:57;;;;;;;5.00;3.80;;;;;;;;;;5059069;28;20292;-80
2022/11/08 09:06:23;;;;;;;5.40;3.40;;;;;;;;;;5055010;28;20174;-80
2022/11/08 09:08:49;;;;;;;5.70;3.87;;;;;;;;;;5043909;28;20589;-80
2022/11/08 09:11:15;;;;;;;5.17;3.60;;;;;;;;;;5042442;28;20678;-80
2022/11/08 09:13:41;;;;;;;5.87;3.30;;;;;;;;;;5041531;28;20458;-79
2022/11/08 09:16:09;;;;;;;5.30;3.27;;;;;;;;;;5052935;28;20197;-80
2022/11/08 09:18:35;;;;;;;4.60;3.33;;;;;;;;;;5052646;28;20185;-80
2022/11/08 09:21:03;;;;;;;5.80;3.10;;;;;;;;;;5025522;28;20392;-80
2022/11/08 09:23:29;;;;;;;5.70;3.57;;;;;;;;;;5044854;28;20218;-79
2022/11/08 09:25:58;;;;;;;5.30;3.70;;;;;;;;;;5043066;28;20297;-79
2022/11/08 09:28:24;;;;;;;5.17;3.33;;;;;;;;;;5037819;28;20186;-80
2022/11/08 09:30:50;;;;;;;6.47;4.30;;;;;;;;;;5061129;28;20747;-80
2022/11/08 09:33:16;;;;;;;9.60;4.63;;;;;;;;;;5051548;28;20220;-80
2022/11/08 09:35:45;;;;;;;4.83;3.70;;;;;;;;;;5055178;28;20200;-80
2022/11/08 09:38:11;;;;;;;6.63;4.00;;;;;;;;;;5040297;28;20193;-79
2022/11/08 09:40:51;;;;;;;6.80;3.80;;;;;;;;;;5042832;28;20238;-80
2022/11/08 09:43:36;;;;;;;5.00;3.67;;;;;;;;;;5068913;28;20248;-79
2022/11/08 09:46:02;;;;;;;6.03;3.90;;;;;;;;;;5057040;28;20205;-80
2022/11/08 09:48:31;;;;;;;9.63;5.23;;;;;;;;;;5052781;28;20651;-81
2022/11/08 09:50:59;;;;;;;4.63;4.20;;;;;;;;;;5053947;28;20195;-78
2022/11/08 09:53:36;;;;;;;8.17;4.23;;;;;;;;;;5061964;28;20201;-79
2022/11/08 09:56:06;;;;;;;6.67;4.00;;;;;;;;;;5044159;28;20639;-79
2022/11/08 09:58:37;;;;;;;6.63;4.63;;;;;;;;;;5047841;28;20190;-79
2022/11/08 10:01:04;;;;;;;5.63;4.30;;;;;;;;;;5029939;28;20390;-78
2022/11/08 10:03:30;;;;;;;6.10;4.40;;;;;;;;;;5040696;28;20210;-78
2022/11/08 10:06:15;;;;;;;4.50;3.40;;;;;;;;;;5036734;28;20171;-78
2022/11/08 10:08:59;;;;;;;5.23;3.30;;;;;;;;;;5036909;28;20187;-78
2022/11/08 10:11:52;;;;;;;3.13;2.50;;;;;;;;;;5036324;28;20689;-78
2022/11/08 10:14:35;;;;;;;3.17;2.30;;;;;;;;;;5046824;28;20699;-78
2022/11/08 10:17:05;;;;;;;4.77;2.10;;;;;;;;;;5046442;28;20576;-78
2022/11/08 10:19:43;;;;;;;2.77;2.23;;;;;;;;;;5040726;28;20202;-78
2022/11/08 10:22:31;;;;;;;4.20;2.60;;;;;;;;;;5028393;28;20212;-78
2022/11/08 10:25:00;;;;;;;4.73;2.90;;;;;;;;;;5060109;22;20279;-76
2022/11/08 10:27:35;;;;;;;4.33;2.70;;;;;;;;;;5045282;28;20689;-76
2022/11/08 10:30:04;;;;;;;4.23;2.80;;;;;;;;;;5030786;28;20185;-76
2022/11/08 10:32:31;;;;;;;3.53;2.60;;;;;;;;;;5057989;28;20649;-76
2022/11/08 10:35:08;;;;;;;2.70;2.03;;;;;;;;;;5042407;28;20199;-76
2022/11/08 10:37:34;;;;;;;3.60;2.00;;;;;;;;;;5026506;28;20187;-76
2022/11/08 10:40:19;;;;;;;3.37;1.90;;;;;;;;;;5029177;28;20187;-76
2022/11/08 10:42:47;;;;;;;3.67;1.90;;;;;;;;;;5028657;28;20714;-76
2022/11/08 10:45:13;;;;;;;4.20;1.90;;;;;;;;;;5025754;28;20203;-76
2022/11/08 10:47:40;;;;;;;3.20;1.90;;;;;;;;;;5025012;28;20591;-76
2022/11/08 10:50:12;;;;;;;3.87;2.07;;;;;;;;;;5028255;28;20573;-76
2022/11/08 10:52:40;;;;;;;4.20;2.00;;;;;;;;;;5027300;28;20241;-76
2022/11/08 10:55:07;;;;;;;2.77;1.97;;;;;;;;;;5019433;28;20266;-77
2022/11/08 10:57:46;;;;;;;4.00;1.97;;;;;;;;;;5020808;28;20186;-76
2022/11/08 11:00:17;;;;;;;3.00;1.80;;;;;;;;;;5027503;28;20559;-76
2022/11/08 11:02:44;;;;;;;3.23;1.90;;;;;;;;;;5022746;28;20210;-76
2022/11/08 11:05:17;;;;;;;5.53;2.07;;;;;;;;;;5005289;28;20286;-76
2022/11/08 11:07:55;;;;;;;3.47;1.87;;;;;;;;;;5023381;28;20183;-76
2022/11/08 11:10:28;;;;;;;2.93;2.07;;;;;;;;;;5025448;28;20194;-76
2022/11/08 11:13:03;;;;;;;3.00;1.93;;;;;;;;;;5033523;28;20205;-77
2022/11/08 11:15:38;;;;;;;2.67;1.87;;;;;;;;;;4998209;28;20249;-76
2022/11/08 11:18:05;;;;;;;2.57;1.90;;;;;;;;;;5026373;28;20174;-77
2022/11/08 11:20:32;;;;;;;4.43;1.93;;;;;;;;;;5024418;28;20190;-76
2022/11/08 11:22:59;;;;;;;3.03;1.80;;;;;;;;;;5025256;28;20987;-76
2022/11/08 11:25:25;;;;;;;2.40;2.00;;;;;;;;;;5025866;28;20807;-76
2022/11/08 11:27:57;;;;;;;2.90;1.80;;;;;;;;;;5023703;28;20548;-76
2022/11/08 11:30:29;;;;;;;3.07;1.90;;;;;;;;;;5026598;28;20556;-76
2022/11/08 11:33:03;;;;;;;4.30;1.83;;;;;;;;;;5022003;28;20233;-77
2022/11/08 11:35:39;;;;;;;3.13;1.80;;;;;;;;;;5021625;28;20212;-76
2022/11/08 11:38:07;;;;;;;2.40;1.77;;;;;;;;;;5025330;28;20221;-76
2022/11/08 11:40:38;;;;;;;3.13;1.97;;;;;;;;;;5044082;28;20205;-76
2022/11/08 11:43:13;;;;;;;6.03;2.07;;;;;;;;;;5026713;28;20252;-76
2022/11/08 11:45:49;;;;;;;3.60;1.70;;;;;;;;;;5007775;28;20203;-76
2022/11/08 11:48:24;;;;;;;3.20;1.87;;;;;;;;;;5019454;28;20216;-76
2022/11/08 11:50:50;;;;;;;3.33;2.10;;;;;;;;;;5026520;28;20269;-76
2022/11/08 11:53:20;;;;;;;2.50;1.80;;;;;;;;;;5009750;28;20273;-76
2022/11/08 11:56:01;;;;;;;4.07;2.03;;;;;;;;;;5021089;28;20627;-76
2022/11/08 11:58:47;;;;;;;3.10;2.13;;;;;;;;;;5020738;28;20269;-76
2022/11/08 12:01:20;;;;;;;4.37;2.23;;;;;;;;;;5009376;28;20604;-76
2022/11/08 12:03:52;;;;;;;4.37;2.10;;;;;;;;;;5026046;28;20217;-76
2022/11/08 12:06:23;;;;;;;4.90;2.07;;;;;;;;;;5024010;28;20206;-77
2022/11/08 12:09:10;;;;;;;3.03;2.00;;;;;;;;;;5026712;28;20266;-76
2022/11/08 12:11:46;;;;;;;4.63;2.17;;;;;;;;;;5022672;28;20206;-76
2022/11/08 12:14:18;;;;;;;5.27;1.80;;;;;;;;;;5032299;28;20181;-77
2022/11/08 12:16:53;;;;;;;2.10;1.90;;;;;;;;;;5021450;28;20267;-77
2022/11/08 12:19:31;;;;;;;3.33;1.73;;;;;;;;;;5028353;28;20611;-76
2022/11/08 12:22:18;;;;;;;2.53;1.90;;;;;;;;;;5026591;28;20341;-76
2022/11/08 12:25:03;;;;;;;3.77;2.00;;;;;;;;;;5026016;28;20797;-76
2022/11/08 12:27:32;;;;;;;3.90;2.13;;;;;;;;;;5026643;28;20190;-72
2022/11/08 12:29:59;;;;;;;4.17;2.40;;;;;;;;;;5019311;28;20206;-71
2022/11/08 12:32:34;;;;;;;4.40;2.80;;;;;;;;;;5023194;28;20194;-74
2022/11/08 12:35:21;;;;;;;3.07;2.37;;;;;;;;;;5028867;28;20206;-78
2022/11/08 12:38:02;;;;;;;2.57;1.97;;;;;;;;;;5039937;28;20187;-80
2022/11/08 12:40:33;;;;;;;4.10;2.30;;;;;;;;;;5029164;28;20214;-78
2022/11/08 12:43:18;;;;;;;2.77;1.83;;;;;;;;;;5026555;28;20729;-77
2022/11/08 12:46:03;;;;;;;2.90;2.10;;;;;;;;;;5028299;28;20230;-85
2022/11/08 12:48:36;;;;;;;2.30;1.70;;;;;;;;;;5012052;28;20186;-84
2022/11/08 12:51:08;;;;;;;3.67;1.80;;;;;;;;;;5033828;28;20770;-86
2022/11/08 12:53:41;;;;;;;2.63;1.97;;;;;;;;;;5037690;28;20538;-86
2022/11/08 12:56:12;;;;;;;3.60;1.90;;;;;;;;;;5034690;28;20214;-87
2022/11/08 12:58:41;;;;;;;2.40;1.90;;;;;;;;;;5017399;28;20217;-86
2022/11/08 13:01:11;;;;;;;3.90;1.87;;;;;;;;;;5023314;28;20237;-89
2022/11/08 13:03:37;;;;;;;2.83;2.00;;;;;;;;;;5025053;28;20218;-79
2022/11/08 13:06:23;;;;;;;3.97;2.10;;;;;;;;;;5022601;28;20276;-77
2022/11/08 13:09:02;;;;;;;3.00;1.83;;;;;;;;;;5034769;28;20190;-77
2022/11/08 13:11:43;;;;;;;2.50;1.90;;;;;;;;;;5023887;28;20186;-76
2022/11/08 13:14:12;;;;;;;3.37;2.30;;;;;;;;;;5018100;28;23506;-74
2022/11/08 13:16:42;;;;;;;2.70;1.80;;;;;;;;;;5019549;28;20207;-74
2022/11/08 13:19:25;;;;;;;2.63;1.83;;;;;;;;;;5016711;28;20185;-74
2022/11/08 13:21:51;;;;;;;24.87;20.07;;;;;;;;;;5027828;28;20242;-77
2022/11/08 13:24:17;;;;;;;6.03;4.20;;;;;;;;;;5024417;28;20226;-75
2022/11/08 13:26:44;;;;;;;7.07;6.23;;;;;;;;;;5014034;28;20318;-75
2022/11/08 13:29:16;;;;;;;5.63;3.50;;;;;;;;;;5022499;28;20698;-75
2022/11/08 13:31:55;;;;;;;3.43;2.40;;;;;;;;;;5025577;28;20550;-75
2022/11/08 13:34:40;;;;;;;3.50;2.17;;;;;;;;;;5024790;28;20296;-75
2022/11/08 13:37:30;;;;;;;3.00;2.07;;;;;;;;;;5023281;28;20696;-74
2022/11/08 13:40:12;;;;;;;3.47;2.77;;;;;;;;;;5028104;28;20194;-75
2022/11/08 13:42:40;;;;;;;2.10;1.90;;;;;;;;;;5020883;28;21003;-75
2022/11/08 13:45:24;;;;;;;3.10;2.00;;;;;;;;;;5022741;28;20198;-75
2022/11/08 13:47:52;;;;;;;3.90;2.40;;;;;;;;;;5025151;28;20285;-75
2022/11/08 13:50:38;;;;;;;6.03;4.37;;;;;;;;;;5023880;28;20202;-75
2022/11/08 13:53:05;;;;;;;9.50;7.90;;;;;;;;;;5020701;28;20289;-75
2022/11/08 13:55:40;;;;;;;3.40;2.80;;;;;;;;;;5027579;28;20206;-75
2022/11/08 13:58:27;;;;;;;4.67;2.73;;;;;;;;;;5026457;28;20197;-75
2022/11/08 14:00:53;;;;;;;5.20;3.20;;;;;;;;;;5020931;28;20244;-74
2022/11/08 14:03:34;;;;;;;5.33;3.60;;;;;;;;;;5028143;28;20218;-75
2022/11/08 14:06:06;;;;;;;4.47;3.97;;;;;;;;;;5023382;28;20863;-75
2022/11/08 14:08:57;;;;;;;3.10;2.30;;;;;;;;;;5024636;28;20182;-73
2022/11/08 14:11:51;;;;;;;6.60;5.00;;;;;;;;;;5028428;28;20689;-75
2022/11/08 14:14:23;;;;;;;4.70;3.30;;;;;;;;;;5023981;28;20772;-75
2022/11/08 14:17:00;;;;;;;2.20;2.00;;;;;;;;;;5021086;28;20667;-76
2022/11/08 14:19:27;;;;;;;2.40;2.13;;;;;;;;;;5039779;28;20183;-73
2022/11/08 14:21:55;;;;;;;4.43;2.60;;;;;;;;;;5023790;28;20927;-75
2022/11/08 14:24:23;;;;;;;8.20;7.13;;;;;;;;;;5020649;28;20852;-75
2022/11/08 14:26:51;;;;;;;7.27;4.80;;;;;;;;;;5025116;28;20574;-75
2022/11/08 14:29:20;;;;;;;4.30;3.40;;;;;;;;;;5030599;28;20661;-75
2022/11/08 14:31:46;;;;;;;11.00;7.80;;;;;;;;;;5023540;28;20210;-75
2022/11/08 14:34:31;;;;;;;6.87;5.00;;;;;;;;;;5030609;28;20189;-75
2022/11/08 14:36:58;;;;;;;5.90;3.20;;;;;;;;;;5028096;28;20265;-75
2022/11/08 14:39:26;;;;;;;5.53;4.23;;;;;;;;;;5033494;28;20208;-74
2022/11/08 14:41:54;;;;;;;9.37;7.60;;;;;;;;;;5032225;28;20181;-76
2022/11/08 14:44:21;;;;;;;7.63;6.73;;;;;;;;;;5032913;28;20230;-75
2022/11/08 14:46:48;;;;;;;14.23;11.00;;;;;;;;;;5022839;28;20182;-75
2022/11/08 14:49:17;;;;;;;8.67;6.60;;;;;;;;;;5033571;28;20717;-75
2022/11/08 14:51:43;;;;;;;16.80;13.93;;;;;;;;;;5031896;28;20187;-75
2022/11/08 14:54:20;;;;;;;11.93;9.43;;;;;;;;;;5032705;28;20187;-75
2022/11/08 14:56:55;;;;;;;9.40;7.53;;;;;;;;;;5029926;28;20182;-75
2022/11/08 14:59:23;;;;;;;13.50;12.07;;;;;;;;;;5033903;28;20221;-75
2022/11/08 15:01:50;;;;;;;6.63;6.03;;;;;;;;;;5043906;28;20193;-75
2022/11/08 15:04:17;;;;;;;10.83;9.70;;;;;;;;;;5032472;28;20214;-75
2022/11/08 15:06:44;;;;;;;10.00;8.03;;;;;;;;;;5026049;28;20183;-75
2022/11/08 15:09:23;;;;;;;9.53;8.53;;;;;;;;;;5031807;28;20186;-75
2022/11/08 15:11:51;;;;;;;6.87;5.97;;;;;;;;;;5026224;28;20205;-75
2022/11/08 15:14:20;;;;;;;8.67;6.10;;;;;;;;;;5031553;28;20185;-75
2022/11/08 15:16:56;;;;;;;10.23;8.53;;;;;;;;;;5029880;28;20244;-75
2022/11/08 15:19:28;;;;;;;15.50;12.60;;;;;;;;;;5031803;28;20190;-75